• Join FlightAware (Why Join?)
  • Login
  • US Flag 
06:15AM EDT


 

Airport Tracker/Info


-or-


 

Live Flight TrackerFlight Track Log ✈ KAP82 ✈ 25-Aug-2013 ✈ KALB - KOGS

Flight Track Log - Related Links

Times and Time Zones

All times are in EDT time to prevent confusion due to time zone crossing. See the KAP82 flight status page for this flight to view local times or setup timezone preferences in your user account.

Time Position Orientation Groundspeed Altitude Reporting Facility
EDT Latitude Longitude Course Direction KTS MPH feet Rate Location/Type
10:36AM 42.7839 -73.8122 328° Northwest 120 138 1,300  Level Boston Center
10:37AM 42.8150 -73.8383 328° Northwest 121 139 2,100 780 Climbing Boston Center
10:38AM 42.8436 -73.8672 323° Northwest 119 137 3,000 720 Climbing Boston Center
10:39AM 42.8706 -73.8906 328° Northwest 115 132 3,700 540 Climbing Boston Center
10:40AM 42.8972 -73.9139 327° Northwest 127 146 4,100 480 Climbing Boston Center
10:41AM 42.9281 -73.9431 325° Northwest 137 158 4,700 540 Climbing Boston Center
10:42AM 42.9631 -73.9750 326° Northwest 138 159 5,200 480 Climbing Boston Center
10:43AM 42.9983 -74.0042 329° Northwest 135 155 5,800 480 Climbing Boston Center
10:44AM 43.0269 -74.0306 326° Northwest 136 157 6,200 360 Climbing Boston Center
10:45AM 43.0600 -74.0569 330° Northwest 141 162 6,500 120 Climbing Boston Center
10:46AM 43.0969 -74.0892 328° Northwest 158 182 6,500  Level Boston Center
10:47AM 43.1361 -74.1217 329° Northwest 159 183 6,500  Level Boston Center
10:48AM 43.1692 -74.1539 325° Northwest 151 174 6,500  Level Boston Center
10:49AM 43.2083 -74.1833 331° Northwest 153 176 6,500  Level Boston Center
10:51AM 43.2575 -74.2247 328° Northwest 164 189 6,500  Level Boston Center
10:52AM 43.2947 -74.2572 328° Northwest 164 189 6,600  Climbing Boston Center
10:53AM 43.3294 -74.2869 328° Northwest 164 189 6,500 -60 Descending Boston Center
10:54AM 43.3667 -74.3194 328° Northwest 159 183 6,500  Level Boston Center
10:55AM 43.4036 -74.3492 330° Northwest 159 183 6,500  Level Boston Center
10:56AM 43.4406 -74.3789 330° Northwest 159 183 6,500  Level Boston Center
10:57AM 43.4756 -74.4114 326° Northwest 159 183 6,500  Level Boston Center
10:58AM 43.5125 -74.4414 330° Northwest 159 183 6,500  Level Boston Center
10:59AM 43.5494 -74.4711 330° Northwest 159 183 6,500  Level Boston Center
11:00AM 43.5864 -74.5039 327° Northwest 159 183 6,500  Level Boston Center
11:01AM 43.6233 -74.5339 330° Northwest 159 183 6,500  Level Boston Center
11:02AM 43.6603 -74.5667 327° Northwest 159 183 6,500  Level Boston Center
11:03AM 43.6950 -74.5967 328° Northwest 165 190 6,600  Climbing Boston Center
11:04AM 43.7300 -74.6267 328° Northwest 165 190 6,500 -60 Descending Boston Center
11:05AM 43.7669 -74.6597 327° Northwest 165 190 6,500  Level Boston Center
11:06AM 43.8058 -74.6897 331° Northwest 165 190 6,500  Level Boston Center
11:07AM 43.8406 -74.7228 326° Northwest 165 190 6,500  Level Boston Center
11:08AM 43.8794 -74.7558 329° Northwest 165 190 6,500  Level Boston Center
11:09AM 43.9164 -74.7861 329° Northwest 160 184 6,600  Climbing Boston Center
11:10AM 43.9533 -74.8194 327° Northwest 160 184 6,500 -60 Descending Boston Center
11:11AM 43.9922 -74.8497 331° Northwest 160 184 6,500  Level Boston Center
11:12AM 44.0292 -74.8831 327° Northwest 166 191 6,500  Level Boston Center
11:13AM 44.0681 -74.9164 328° Northwest 166 191 6,500  Level Boston Center
11:14AM 44.1047 -74.9497 327° Northwest 166 191 6,500  Level Boston Center
11:15AM 44.1436 -74.9831 328° Northwest 166 191 6,500  Level Boston Center
11:16AM 44.1803 -75.0194 325° Northwest 166 191 6,500  Level Boston Center
11:17AM 44.2172 -75.0472 332° Northwest 161 185 6,600 -120 Climbing Boston Center
11:18AM 44.2561 -75.0808 328° Northwest 161 185 6,300 -360 Descending Boston Center
11:19AM 44.2947 -75.1144 328° Northwest 166 191 5,900 -420 Descending Boston Center
11:20AM 44.3378 -75.1542 327° Northwest 166 191 5,500 -420 Descending Boston Center
11:21AM 44.3786 -75.1881 329° Northwest 166 191 5,100 -360 Descending Boston Center
11:22AM 44.4194 -75.2247 327° Northwest 166 191 4,800 -360 Descending Boston Center
11:23AM 44.4622 -75.2617 328° Northwest 172 198 4,400 -420 Descending Boston Center